createdAt,value
2023-11-24T00:01:08.522Z,5.34
2023-11-24T00:03:40.551Z,5.37
2023-11-24T00:06:08.918Z,5.36
2023-11-24T00:08:37.619Z,5.41
2023-11-24T00:11:06.209Z,5.43
2023-11-24T00:13:34.155Z,5.44
2023-11-24T00:16:02.811Z,5.46
2023-11-24T00:18:31.700Z,5.47
2023-11-24T00:21:07.613Z,5.52
2023-11-24T00:23:35.856Z,5.55
2023-11-24T00:26:08.127Z,5.61
2023-11-24T00:28:40.680Z,5.62
2023-11-24T00:31:09.389Z,5.64
2023-11-24T00:33:37.737Z,5.64
2023-11-24T00:36:09.118Z,5.65
2023-11-24T00:38:37.300Z,5.64
2023-11-24T00:41:09.652Z,5.64
2023-11-24T00:43:38.164Z,5.64
2023-11-24T00:46:07.582Z,5.65
2023-11-24T00:48:36.837Z,5.65
2023-11-24T00:51:08.488Z,5.63
2023-11-24T00:53:36.520Z,5.63
2023-11-24T00:56:05.130Z,5.62
2023-11-24T00:58:33.111Z,5.61
2023-11-24T01:01:01.931Z,5.62
2023-11-24T01:03:30.275Z,5.63
2023-11-24T01:05:59.412Z,5.62
2023-11-24T01:08:27.547Z,5.61
2023-11-24T01:10:57.821Z,5.58
2023-11-24T01:13:26.123Z,5.49
2023-11-24T01:15:54.104Z,5.43
2023-11-24T01:18:22.735Z,5.37
2023-11-24T01:20:50.788Z,5.33
2023-11-24T01:23:18.967Z,5.29
2023-11-24T01:25:48.170Z,5.25
2023-11-24T01:28:16.417Z,5.22
2023-11-24T01:30:44.743Z,5.18
2023-11-24T01:33:13.019Z,5.12
2023-11-24T01:35:41.762Z,5.04
2023-11-24T01:38:10.989Z,4.96
2023-11-24T01:40:39.333Z,4.90
2023-11-24T01:43:08.012Z,4.81
2023-11-24T01:45:36.011Z,4.75
2023-11-24T01:48:04.517Z,4.73
2023-11-24T01:50:33.396Z,4.72
2023-11-24T01:53:01.629Z,4.70
2023-11-24T01:55:29.892Z,4.66
2023-11-24T01:57:58.473Z,4.62
2023-11-24T02:00:27.770Z,4.59
2023-11-24T02:02:59.130Z,4.56
2023-11-24T02:05:27.394Z,4.55
2023-11-24T02:07:56.039Z,4.55
2023-11-24T02:10:24.101Z,4.56
2023-11-24T02:12:52.894Z,4.56
2023-11-24T02:15:21.287Z,4.54
2023-11-24T02:17:49.421Z,4.52
2023-11-24T02:20:18.138Z,4.51
2023-11-24T02:22:46.255Z,4.51
2023-11-24T02:25:15.236Z,4.51
2023-11-24T02:27:43.551Z,4.55
2023-11-24T02:30:13.006Z,4.59
2023-11-24T02:32:41.299Z,4.61
2023-11-24T02:35:10.979Z,4.66
2023-11-24T02:37:39.383Z,4.67
2023-11-24T02:40:09.836Z,4.71
2023-11-24T02:42:37.963Z,4.75
2023-11-24T02:45:07.500Z,4.78
2023-11-24T02:47:35.926Z,4.80
2023-11-24T02:50:04.929Z,4.83
2023-11-24T02:52:33.027Z,4.85
2023-11-24T02:55:01.193Z,4.89
2023-11-24T02:57:29.339Z,4.90
2023-11-24T02:59:57.344Z,4.88
2023-11-24T03:02:25.453Z,4.83
2023-11-24T03:04:53.641Z,4.81
2023-11-24T03:07:21.869Z,4.80
2023-11-24T03:09:53.051Z,4.79
2023-11-24T03:12:22.710Z,4.79
2023-11-24T03:14:50.878Z,4.79
2023-11-24T03:17:18.792Z,4.80
2023-11-24T03:19:46.785Z,4.82
2023-11-24T03:22:15.730Z,4.83
2023-11-24T03:24:43.836Z,4.87
2023-11-24T03:27:11.953Z,4.88
2023-11-24T03:29:40.994Z,4.89
2023-11-24T03:32:08.943Z,4.91
2023-11-24T03:34:37.459Z,4.92
2023-11-24T03:37:05.824Z,4.94
2023-11-24T03:39:34.042Z,4.94
2023-11-24T03:42:02.219Z,4.97
2023-11-24T03:44:30.283Z,4.97
2023-11-24T03:46:58.787Z,4.97
2023-11-24T03:49:26.870Z,4.98
2023-11-24T03:51:54.839Z,4.99
2023-11-24T03:54:23.456Z,5.00
2023-11-24T03:56:51.634Z,5.00
2023-11-24T03:59:19.659Z,5.00
2023-11-24T04:01:47.704Z,5.03
2023-11-24T04:04:16.059Z,5.05
2023-11-24T04:06:44.591Z,5.06
2023-11-24T04:09:12.689Z,5.07
2023-11-24T04:11:40.799Z,5.07
2023-11-24T04:14:08.841Z,5.06
2023-11-24T04:16:37.713Z,5.05
2023-11-24T04:19:08.117Z,5.03
2023-11-24T04:21:37.424Z,5.03
2023-11-24T04:24:06.466Z,5.03
2023-11-24T04:26:35.582Z,5.00
2023-11-24T04:29:04.266Z,4.97
2023-11-24T04:31:32.244Z,4.96
2023-11-24T04:34:01.652Z,4.95
2023-11-24T04:36:30.234Z,4.96
2023-11-24T04:38:58.382Z,4.96
2023-11-24T04:41:26.438Z,4.97
2023-11-24T04:43:54.524Z,4.97
2023-11-24T04:46:23.379Z,4.95
2023-11-24T04:48:51.543Z,4.92
2023-11-24T04:51:19.793Z,4.87
2023-11-24T04:53:48.035Z,4.84
2023-11-24T04:56:16.103Z,4.81
2023-11-24T04:58:44.539Z,4.80
2023-11-24T05:01:13.102Z,4.75
2023-11-24T05:03:41.966Z,4.70
2023-11-24T05:06:10.022Z,4.67
2023-11-24T05:08:38.365Z,4.64
2023-11-24T05:11:09.480Z,4.60
2023-11-24T05:13:37.554Z,4.57
2023-11-24T05:16:06.563Z,4.55
2023-11-24T05:18:34.753Z,4.54
2023-11-24T05:21:02.763Z,4.53
2023-11-24T05:23:30.739Z,4.52
2023-11-24T05:25:58.836Z,4.50
2023-11-24T05:28:26.904Z,4.49
2023-11-24T05:30:55.492Z,4.47
2023-11-24T05:33:23.634Z,4.47
2023-11-24T05:35:51.688Z,4.49
2023-11-24T05:38:19.816Z,4.49
2023-11-24T05:40:47.828Z,4.50
2023-11-24T05:43:16.052Z,4.52
2023-11-24T05:45:44.327Z,4.53
2023-11-24T05:48:12.394Z,4.58
2023-11-24T05:50:40.385Z,4.60
2023-11-24T05:53:08.783Z,4.61
2023-11-24T05:55:36.872Z,4.63
2023-11-24T05:58:07.250Z,4.64
2023-11-24T06:00:35.526Z,4.61
2023-11-24T06:03:03.741Z,4.54
2023-11-24T06:05:31.951Z,4.47
2023-11-24T06:08:02.945Z,4.41
2023-11-24T06:10:30.926Z,4.29
2023-11-24T06:12:59.267Z,4.16
2023-11-24T06:15:27.437Z,4.04
2023-11-24T06:17:55.488Z,3.93
2023-11-24T06:20:25.402Z,3.81
2023-11-24T06:22:53.470Z,3.71
2023-11-24T06:25:21.656Z,3.63
2023-11-24T06:27:49.885Z,3.52
2023-11-24T06:30:18.490Z,3.45
2023-11-24T06:32:46.595Z,3.39
2023-11-24T06:35:16.969Z,3.32
2023-11-24T06:37:45.112Z,3.23
2023-11-24T06:40:13.469Z,3.14
2023-11-24T06:42:42.274Z,3.05
2023-11-24T06:45:14.042Z,3.01
2023-11-24T06:47:42.845Z,2.96
2023-11-24T06:50:13.550Z,2.92
2023-11-24T06:52:42.557Z,2.86
2023-11-24T06:55:14.338Z,2.79
2023-11-24T06:57:42.813Z,2.73
2023-11-24T07:00:17.918Z,2.69
2023-11-24T07:02:47.561Z,2.68
2023-11-24T07:05:19.397Z,2.67
2023-11-24T07:07:47.463Z,2.66
2023-11-24T07:10:16.083Z,2.64
2023-11-24T07:12:45.396Z,2.64
2023-11-24T07:15:14.301Z,2.65
2023-11-24T07:17:42.650Z,2.66
2023-11-24T07:20:12.837Z,2.65
2023-11-24T07:22:45.521Z,2.65
2023-11-24T07:25:16.466Z,2.65
2023-11-24T07:27:44.751Z,2.67
2023-11-24T07:30:13.334Z,2.70
2023-11-24T07:32:41.646Z,2.71
2023-11-24T07:35:12.033Z,2.73
2023-11-24T07:37:40.354Z,2.72
2023-11-24T07:40:15.717Z,2.76
2023-11-24T07:42:46.006Z,2.75
2023-11-24T07:45:14.532Z,2.76
2023-11-24T07:47:42.667Z,2.75
2023-11-24T07:50:11.089Z,2.72
2023-11-24T07:52:39.143Z,2.72
2023-11-24T07:55:07.549Z,2.70
2023-11-24T07:57:36.776Z,2.71
2023-11-24T08:00:05.592Z,2.73
2023-11-24T08:02:41.366Z,2.73
2023-11-24T08:05:10.077Z,2.74
2023-11-24T08:07:39.036Z,2.75
2023-11-24T08:10:08.128Z,2.77
2023-11-24T08:12:36.168Z,2.80
2023-11-24T08:15:04.445Z,2.85
2023-11-24T08:17:32.539Z,2.87
2023-11-24T08:20:00.728Z,2.90
2023-11-24T08:22:29.772Z,2.95
2023-11-24T08:24:57.915Z,2.97
2023-11-24T08:27:26.064Z,3.00
2023-11-24T08:29:54.232Z,3.04
2023-11-24T08:32:22.260Z,3.07
2023-11-24T08:34:50.503Z,3.09
2023-11-24T08:37:19.128Z,3.10
2023-11-24T08:39:47.253Z,3.10
2023-11-24T08:42:15.807Z,3.11
2023-11-24T08:44:43.791Z,3.15
2023-11-24T08:47:11.907Z,3.21
2023-11-24T08:49:40.393Z,3.26
2023-11-24T08:52:10.752Z,3.31
2023-11-24T08:54:39.570Z,3.36
2023-11-24T08:57:08.996Z,3.43
2023-11-24T08:59:37.636Z,3.50
2023-11-24T09:02:05.959Z,3.57
2023-11-24T09:04:34.172Z,3.62
2023-11-24T09:07:02.594Z,3.67
2023-11-24T09:09:30.573Z,3.72
2023-11-24T09:11:58.546Z,3.76
2023-11-24T09:14:26.603Z,3.78
2023-11-24T09:16:54.880Z,3.81
2023-11-24T09:19:23.185Z,3.81
2023-11-24T09:21:51.928Z,3.83
2023-11-24T09:24:20.088Z,3.84
2023-11-24T09:26:48.126Z,3.84
2023-11-24T09:29:16.226Z,3.83
2023-11-24T09:31:44.458Z,3.82
2023-11-24T09:34:13.334Z,3.78
2023-11-24T09:36:43.384Z,3.76
2023-11-24T09:39:11.376Z,3.76
2023-11-24T09:41:41.010Z,3.77
2023-11-24T09:44:11.447Z,3.77
2023-11-24T09:46:49.214Z,3.78
2023-11-24T09:49:21.581Z,3.79
2023-11-24T09:51:49.716Z,3.82
2023-11-24T09:54:19.405Z,3.85
2023-11-24T09:56:47.728Z,3.91
2023-11-24T09:59:15.902Z,3.95
2023-11-24T10:01:44.219Z,4.05
2023-11-24T10:04:14.067Z,4.13
2023-11-24T10:06:45.038Z,4.22
2023-11-24T10:09:23.108Z,4.30
2023-11-24T10:11:51.627Z,4.40
2023-11-24T10:14:22.965Z,4.48
2023-11-24T10:16:51.200Z,4.58
2023-11-24T10:19:22.877Z,4.68
2023-11-24T10:21:55.102Z,4.78
2023-11-24T10:24:26.655Z,4.87
2023-11-24T10:26:54.998Z,4.93
2023-11-24T10:29:28.453Z,4.95
2023-11-24T10:31:56.428Z,4.98
2023-11-24T10:34:25.951Z,5.01
2023-11-24T10:36:54.883Z,5.02
2023-11-24T10:39:26.892Z,5.06
2023-11-24T10:41:56.034Z,5.11
2023-11-24T10:44:26.490Z,5.16
2023-11-24T10:47:01.393Z,5.22
2023-11-24T10:49:35.971Z,5.25
2023-11-24T10:52:14.621Z,5.32
2023-11-24T10:54:51.603Z,5.36
2023-11-24T10:57:23.349Z,5.35
2023-11-24T10:59:51.948Z,5.39
2023-11-24T11:02:20.986Z,5.43
2023-11-24T11:05:18.876Z,5.52
2023-11-24T11:08:20.472Z,5.54
2023-11-24T11:11:03.242Z,5.53
2023-11-24T11:13:32.040Z,5.54
2023-11-24T11:16:00.135Z,5.58
2023-11-24T11:18:28.189Z,5.62
2023-11-24T11:20:56.191Z,5.62
2023-11-24T11:23:27.275Z,5.61
2023-11-24T11:25:55.539Z,5.60
2023-11-24T11:28:36.056Z,5.59
2023-11-24T11:31:24.133Z,5.53
2023-11-24T11:33:52.207Z,5.49
2023-11-24T11:36:23.581Z,5.46
2023-11-24T11:38:54.763Z,5.43
2023-11-24T11:41:46.443Z,5.40
2023-11-24T11:44:27.499Z,5.32
2023-11-24T11:47:23.075Z,5.29
2023-11-24T11:49:55.896Z,5.25
2023-11-24T11:52:27.643Z,5.22
2023-11-24T11:54:58.112Z,5.22
2023-11-24T11:57:26.598Z,5.19
2023-11-24T11:59:55.131Z,5.20
2023-11-24T12:02:24.789Z,5.22
2023-11-24T12:04:53.299Z,5.26
2023-11-24T12:07:21.990Z,5.28
2023-11-24T12:09:50.872Z,5.31
2023-11-24T12:12:21.051Z,5.36
2023-11-24T12:14:50.581Z,5.39
2023-11-24T12:17:18.961Z,5.41
2023-11-24T12:19:49.677Z,5.41
2023-11-24T12:22:19.710Z,5.41
2023-11-24T12:24:48.397Z,5.41
2023-11-24T12:27:16.606Z,5.38
2023-11-24T12:29:47.457Z,5.38
2023-11-24T12:32:15.904Z,5.41
2023-11-24T12:34:46.547Z,5.45
2023-11-24T12:37:15.362Z,5.48
2023-11-24T12:39:43.891Z,5.49
2023-11-24T12:42:12.368Z,5.47
2023-11-24T12:44:41.197Z,5.45
2023-11-24T12:47:16.043Z,5.43
2023-11-24T12:50:02.203Z,5.40
2023-11-24T12:52:32.723Z,5.34
2023-11-24T12:55:08.911Z,5.33
2023-11-24T12:57:41.410Z,5.30
2023-11-24T13:00:16.113Z,5.27
2023-11-24T13:02:46.428Z,5.24
2023-11-24T13:05:17.745Z,5.23
2023-11-24T13:07:46.532Z,5.21
2023-11-24T13:10:14.810Z,5.18
2023-11-24T13:12:43.312Z,5.15
2023-11-24T13:15:11.635Z,5.13
2023-11-24T13:17:40.182Z,5.10
2023-11-24T13:20:13.067Z,5.10
2023-11-24T13:22:43.578Z,5.06
2023-11-24T13:25:13.047Z,5.04
2023-11-24T13:27:43.062Z,5.05
2023-11-24T13:30:13.248Z,5.05
2023-11-24T13:32:43.025Z,5.06
2023-11-24T13:35:12.317Z,5.06
2023-11-24T13:37:40.847Z,5.06
2023-11-24T13:40:13.409Z,5.05
2023-11-24T13:42:41.730Z,5.03
2023-11-24T13:45:12.834Z,5.01
2023-11-24T13:47:42.560Z,4.99
2023-11-24T13:50:11.278Z,4.98
2023-11-24T13:52:39.383Z,4.94
2023-11-24T13:55:08.251Z,4.95
2023-11-24T13:57:37.191Z,4.94
2023-11-24T14:00:10.896Z,4.92
2023-11-24T14:02:39.281Z,4.90
2023-11-24T14:05:09.937Z,4.89
2023-11-24T14:07:38.058Z,4.85
2023-11-24T14:10:07.777Z,4.81
2023-11-24T14:12:36.659Z,4.77
2023-11-24T14:15:05.825Z,4.75
2023-11-24T14:17:37.176Z,4.72
2023-11-24T14:20:08.208Z,4.71
2023-11-24T14:22:37.590Z,4.69
2023-11-24T14:25:10.277Z,4.67
2023-11-24T14:27:41.594Z,4.65
2023-11-24T14:30:09.989Z,4.63
2023-11-24T14:32:38.164Z,4.62
2023-11-24T14:35:07.923Z,4.59
2023-11-24T14:37:36.219Z,4.57
2023-11-24T14:40:19.939Z,4.55
2023-11-24T14:42:51.240Z,4.49
2023-11-24T14:45:22.061Z,4.42
2023-11-24T14:47:51.548Z,4.37
2023-11-24T14:50:20.734Z,4.33
2023-11-24T14:52:49.012Z,4.32
2023-11-24T14:55:18.152Z,4.32
2023-11-24T14:57:46.740Z,4.31
2023-11-24T15:00:32.014Z,4.27
2023-11-24T15:03:09.366Z,4.23
2023-11-24T15:05:42.076Z,4.22
2023-11-24T15:08:15.477Z,4.24
2023-11-24T15:10:44.930Z,4.26
2023-11-24T15:13:22.921Z,4.26
2023-11-24T15:15:51.265Z,4.26
2023-11-24T15:18:21.651Z,4.26
2023-11-24T15:20:54.642Z,4.24
2023-11-24T15:23:25.082Z,4.22
2023-11-24T15:25:56.396Z,4.20
2023-11-24T15:28:25.162Z,4.18
2023-11-24T15:30:55.105Z,4.16
2023-11-24T15:33:23.584Z,4.14
2023-11-24T15:35:51.769Z,4.12
2023-11-24T15:38:21.845Z,4.08
2023-11-24T15:40:52.520Z,4.04
2023-11-24T15:43:25.455Z,4.01
2023-11-24T15:45:56.340Z,3.98
2023-11-24T15:48:26.553Z,3.93
2023-11-24T15:50:54.769Z,3.86
2023-11-24T15:53:23.355Z,3.81
2023-11-24T15:55:52.916Z,3.76
2023-11-24T15:58:26.566Z,3.73
2023-11-24T16:00:58.089Z,3.72
2023-11-24T16:03:26.697Z,3.70
2023-11-24T16:05:59.334Z,3.67
2023-11-24T16:08:34.586Z,3.65
2023-11-24T16:11:11.388Z,3.63
2023-11-24T16:13:42.770Z,3.60
2023-11-24T16:16:11.336Z,3.55
2023-11-24T16:18:41.825Z,3.52
2023-11-24T16:21:09.954Z,3.50
2023-11-24T16:23:37.949Z,3.50
2023-11-24T16:26:06.181Z,3.51
2023-11-24T16:28:35.077Z,3.51
2023-11-24T16:31:03.228Z,3.51
2023-11-24T16:33:34.454Z,3.52
2023-11-24T16:36:02.592Z,3.51
2023-11-24T16:38:31.896Z,3.52
2023-11-24T16:41:04.845Z,3.51
2023-11-24T16:43:33.095Z,3.52
2023-11-24T16:46:01.184Z,3.52
2023-11-24T16:48:29.172Z,3.52
2023-11-24T16:50:58.368Z,3.54
2023-11-24T16:53:26.350Z,3.54
2023-11-24T16:55:54.384Z,3.50
2023-11-24T16:58:22.655Z,3.49
2023-11-24T17:00:50.985Z,3.46
2023-11-24T17:03:19.225Z,3.43
2023-11-24T17:05:47.921Z,3.42
2023-11-24T17:08:15.986Z,3.39
2023-11-24T17:10:44.146Z,3.35
2023-11-24T17:13:12.332Z,3.34
2023-11-24T17:15:40.440Z,3.32
2023-11-24T17:18:10.704Z,3.32
2023-11-24T17:20:38.888Z,3.31
2023-11-24T17:23:07.074Z,3.32
2023-11-24T17:25:37.249Z,3.32
2023-11-24T17:28:06.572Z,3.31
2023-11-24T17:30:35.375Z,3.31
2023-11-24T17:33:03.689Z,3.29
2023-11-24T17:35:32.493Z,3.26
2023-11-24T17:38:00.700Z,3.24
2023-11-24T17:40:28.990Z,3.26
2023-11-24T17:42:57.324Z,3.26
2023-11-24T17:45:25.442Z,3.30
2023-11-24T17:47:53.687Z,3.34
2023-11-24T17:50:21.927Z,3.37
2023-11-24T17:52:50.659Z,3.40
2023-11-24T17:55:21.968Z,3.41
2023-11-24T17:57:50.628Z,3.42
2023-11-24T18:00:22.587Z,3.45
2023-11-24T18:02:51.118Z,3.46
2023-11-24T18:05:19.713Z,3.46
2023-11-24T18:07:47.899Z,3.47
2023-11-24T18:10:16.156Z,3.48
2023-11-24T18:12:44.800Z,3.50
2023-11-24T18:15:14.893Z,3.51
2023-11-24T18:17:43.452Z,3.51
2023-11-24T18:20:15.140Z,3.52
2023-11-24T18:22:43.701Z,3.51
2023-11-24T18:25:13.440Z,3.50
2023-11-24T18:27:41.574Z,3.49
2023-11-24T18:30:11.326Z,3.49
2023-11-24T18:32:40.675Z,3.49
2023-11-24T18:35:09.872Z,3.50
2023-11-24T18:37:39.130Z,3.48
2023-11-24T18:40:09.661Z,3.46
2023-11-24T18:42:37.841Z,3.44
2023-11-24T18:45:07.911Z,3.43
2023-11-24T18:47:36.224Z,3.43
2023-11-24T18:50:07.420Z,3.45
2023-11-24T18:52:36.119Z,3.47
2023-11-24T18:55:08.270Z,3.46
2023-11-24T18:57:36.478Z,3.44
2023-11-24T19:00:06.192Z,3.43
2023-11-24T19:02:36.215Z,3.42
2023-11-24T19:05:07.368Z,3.45
2023-11-24T19:07:35.810Z,3.46
2023-11-24T19:10:04.574Z,3.49
2023-11-24T19:12:32.612Z,3.51
2023-11-24T19:15:00.704Z,3.54
2023-11-24T19:17:28.868Z,3.55
2023-11-24T19:19:57.314Z,3.53
2023-11-24T19:22:25.367Z,3.53
2023-11-24T19:24:53.417Z,3.50
2023-11-24T19:27:21.475Z,3.50
2023-11-24T19:29:49.576Z,3.49
2023-11-24T19:32:17.998Z,3.51
2023-11-24T19:34:46.197Z,3.53
2023-11-24T19:37:14.412Z,3.54
2023-11-24T19:39:44.177Z,3.53
2023-11-24T19:42:12.163Z,3.52
2023-11-24T19:44:40.223Z,3.51
2023-11-24T19:47:10.584Z,3.52
2023-11-24T19:49:39.639Z,3.52
2023-11-24T19:52:07.961Z,3.53
2023-11-24T19:54:36.098Z,3.53
2023-11-24T19:57:05.432Z,3.55
2023-11-24T19:59:33.552Z,3.57
2023-11-24T20:02:04.221Z,3.53
2023-11-24T20:04:32.422Z,3.51
2023-11-24T20:07:00.757Z,3.47
2023-11-24T20:09:29.028Z,3.44
2023-11-24T20:11:57.352Z,3.41
2023-11-24T20:14:25.471Z,3.37
2023-11-24T20:16:53.551Z,3.35
2023-11-24T20:19:22.067Z,3.33
2023-11-24T20:21:50.289Z,3.32
2023-11-24T20:24:18.612Z,3.32
2023-11-24T20:26:46.736Z,3.32
2023-11-24T20:29:15.857Z,3.30
2023-11-24T20:31:44.615Z,3.30
2023-11-24T20:34:12.829Z,3.29
2023-11-24T20:36:40.971Z,3.26
2023-11-24T20:39:09.032Z,3.27
2023-11-24T20:41:41.154Z,3.28
2023-11-24T20:44:09.589Z,3.28
2023-11-24T20:46:38.263Z,3.28
2023-11-24T20:49:07.652Z,3.27
2023-11-24T20:51:35.835Z,3.27
2023-11-24T20:54:04.035Z,3.28
2023-11-24T20:56:32.279Z,3.31
2023-11-24T20:59:00.356Z,3.33
2023-11-24T21:01:29.018Z,3.35
2023-11-24T21:03:57.373Z,3.35
2023-11-24T21:06:25.387Z,3.32
2023-11-24T21:08:59.637Z,3.32
2023-11-24T21:11:28.998Z,3.32
2023-11-24T21:13:57.236Z,3.31
2023-11-24T21:16:27.045Z,3.30
2023-11-24T21:18:55.499Z,3.31
2023-11-24T21:21:23.867Z,3.31
2023-11-24T21:23:52.014Z,3.31
2023-11-24T21:26:21.570Z,3.33
2023-11-24T21:28:50.747Z,3.34
2023-11-24T21:31:20.396Z,3.37
2023-11-24T21:33:50.076Z,3.38
2023-11-24T21:36:18.325Z,3.37
2023-11-24T21:38:46.476Z,3.35
2023-11-24T21:41:20.771Z,3.27
2023-11-24T21:43:50.012Z,3.19
2023-11-24T21:46:24.118Z,3.12
2023-11-24T21:48:53.095Z,3.03
2023-11-24T21:51:21.169Z,2.88
2023-11-24T21:53:49.232Z,2.77
2023-11-24T21:56:31.580Z,2.63
2023-11-24T21:59:00.123Z,2.52
2023-11-24T22:01:28.612Z,2.52
2023-11-24T22:03:57.193Z,2.43
2023-11-24T22:06:29.721Z,2.34
2023-11-24T22:08:57.850Z,2.26
2023-11-24T22:11:25.839Z,2.20
2023-11-24T22:13:53.803Z,2.17
2023-11-24T22:16:22.326Z,2.13
2023-11-24T22:18:51.659Z,2.08
2023-11-24T22:21:21.304Z,2.05
2023-11-24T22:23:50.042Z,2.04
2023-11-24T22:26:23.211Z,2.05
2023-11-24T22:28:53.686Z,2.07
2023-11-24T22:31:21.894Z,2.11
2023-11-24T22:33:50.244Z,2.15
2023-11-24T22:36:20.732Z,2.17
2023-11-24T22:38:50.724Z,2.15
2023-11-24T22:41:22.338Z,2.13
2023-11-24T22:43:53.789Z,2.15
2023-11-24T22:46:24.166Z,2.17
2023-11-24T22:48:53.910Z,2.22
2023-11-24T22:51:24.113Z,2.27
2023-11-24T22:53:52.403Z,2.27
2023-11-24T22:56:25.271Z,2.22
2023-11-24T22:59:00.104Z,2.17
2023-11-24T23:01:28.883Z,2.08
2023-11-24T23:03:59.188Z,2.00
2023-11-24T23:06:29.469Z,1.97
2023-11-24T23:08:57.902Z,1.99
2023-11-24T23:11:27.344Z,2.00
2023-11-24T23:13:55.480Z,2.03
2023-11-24T23:16:26.863Z,2.07
2023-11-24T23:18:55.114Z,2.14
2023-11-24T23:21:24.168Z,2.20
2023-11-24T23:23:53.214Z,2.25
2023-11-24T23:26:22.806Z,2.28
2023-11-24T23:28:51.800Z,2.31
2023-11-24T23:31:20.353Z,2.34
2023-11-24T23:33:48.598Z,2.38
2023-11-24T23:36:17.256Z,2.43
2023-11-24T23:38:47.122Z,2.46
2023-11-24T23:41:15.522Z,2.48
2023-11-24T23:43:44.270Z,2.51
2023-11-24T23:46:12.731Z,2.54
2023-11-24T23:48:40.885Z,2.54
2023-11-24T23:51:08.921Z,2.54
2023-11-24T23:53:36.988Z,2.56
2023-11-24T23:56:06.963Z,2.59
2023-11-24T23:58:38.655Z,2.61
